Aviation Digital Data Service (ADDS)

Output produced by METARs form (1336 UTC 20 November 2017)
found at http://aviationweather.gov/adds/metars/
 
KBPT 201253Z 00000KT 9SM CLR 06/02 A3023 RMK AO2 SLP237 T00560022